sensor_id;sensor_type;location;lat;lon;timestamp;pressure;altitude;pressure_sealevel;temperature;humidity
16834;BME280;8533;48.426;10.868;2023-02-22T00:01:38;96079.76;;;3.21;100.00
16834;BME280;8533;48.426;10.868;2023-02-22T00:04:09;96079.66;;;3.18;100.00
16834;BME280;8533;48.426;10.868;2023-02-22T00:06:36;96079.77;;;3.14;100.00
16834;BME280;8533;48.426;10.868;2023-02-22T00:09:04;96073.70;;;3.11;100.00
16834;BME280;8533;48.426;10.868;2023-02-22T00:11:33;96075.98;;;3.10;100.00
16834;BME280;8533;48.426;10.868;2023-02-22T00:14:00;96080.57;;;3.08;100.00
16834;BME280;8533;48.426;10.868;2023-02-22T00:16:28;96079.17;;;3.05;100.00
16834;BME280;8533;48.426;10.868;2023-02-22T00:18:56;96080.66;;;3.04;100.00
16834;BME280;8533;48.426;10.868;2023-02-22T00:21:23;96071.51;;;3.01;100.00
16834;BME280;8533;48.426;10.868;2023-02-22T00:23:51;96070.14;;;2.99;100.00
16834;BME280;8533;48.426;10.868;2023-02-22T00:26:21;96074.02;;;2.99;100.00
16834;BME280;8533;48.426;10.868;2023-02-22T00:28:51;96077.28;;;2.97;100.00
16834;BME280;8533;48.426;10.868;2023-02-22T00:31:19;96065.05;;;2.95;100.00
16834;BME280;8533;48.426;10.868;2023-02-22T00:33:46;96078.47;;;2.94;100.00
16834;BME280;8533;48.426;10.868;2023-02-22T00:36:14;96077.67;;;2.94;100.00
16834;BME280;8533;48.426;10.868;2023-02-22T00:38:41;96078.66;;;2.93;100.00
16834;BME280;8533;48.426;10.868;2023-02-22T00:41:09;96078.39;;;2.92;100.00
16834;BME280;8533;48.426;10.868;2023-02-22T00:43:37;96073.11;;;2.89;100.00
16834;BME280;8533;48.426;10.868;2023-02-22T00:46:05;96080.14;;;2.85;100.00
16834;BME280;8533;48.426;10.868;2023-02-22T00:48:33;96075.39;;;2.82;100.00
16834;BME280;8533;48.426;10.868;2023-02-22T00:51:00;96074.78;;;2.80;100.00
16834;BME280;8533;48.426;10.868;2023-02-22T00:53:28;96077.56;;;2.78;100.00
16834;BME280;8533;48.426;10.868;2023-02-22T00:55:55;96072.89;;;2.78;100.00
16834;BME280;8533;48.426;10.868;2023-02-22T00:58:22;96072.31;;;2.76;100.00
16834;BME280;8533;48.426;10.868;2023-02-22T01:00:50;96074.48;;;2.72;100.00
16834;BME280;8533;48.426;10.868;2023-02-22T01:03:19;96073.69;;;2.72;100.00
16834;BME280;8533;48.426;10.868;2023-02-22T01:05:47;96074.67;;;2.71;100.00
16834;BME280;8533;48.426;10.868;2023-02-22T01:08:16;96074.38;;;2.69;100.00
16834;BME280;8533;48.426;10.868;2023-02-22T01:10:44;96067.04;;;2.66;100.00
16834;BME280;8533;48.426;10.868;2023-02-22T01:13:12;96066.73;;;2.65;100.00
16834;BME280;8533;48.426;10.868;2023-02-22T01:15:41;96072.09;;;2.64;100.00
16834;BME280;8533;48.426;10.868;2023-02-22T01:18:10;96067.12;;;2.62;100.00
16834;BME280;8533;48.426;10.868;2023-02-22T01:20:38;96067.42;;;2.63;100.00
16834;BME280;8533;48.426;10.868;2023-02-22T01:23:06;96061.66;;;2.61;100.00
16834;BME280;8533;48.426;10.868;2023-02-22T01:25:34;96060.28;;;2.59;100.00
16834;BME280;8533;48.426;10.868;2023-02-22T01:28:03;96056.30;;;2.56;100.00
16834;BME280;8533;48.426;10.868;2023-02-22T01:30:33;96055.88;;;2.53;100.00
16834;BME280;8533;48.426;10.868;2023-02-22T01:33:05;96049.84;;;2.50;100.00
16834;BME280;8533;48.426;10.868;2023-02-22T01:35:36;96051.40;;;2.44;100.00
16834;BME280;8533;48.426;10.868;2023-02-22T01:38:06;96049.03;;;2.43;100.00
16834;BME280;8533;48.426;10.868;2023-02-22T01:40:36;96042.17;;;2.39;100.00
16834;BME280;8533;48.426;10.868;2023-02-22T01:43:22;96041.38;;;2.39;100.00
16834;BME280;8533;48.426;10.868;2023-02-22T01:46:18;96041.86;;;2.38;100.00
16834;BME280;8533;48.426;10.868;2023-02-22T01:48:51;96044.14;;;2.37;100.00
16834;BME280;8533;48.426;10.868;2023-02-22T01:51:20;96038.41;;;2.35;100.00
16834;BME280;8533;48.426;10.868;2023-02-22T01:54:09;96042.95;;;2.33;100.00
16834;BME280;8533;48.426;10.868;2023-02-22T01:56:41;96036.02;;;2.34;100.00
16834;BME280;8533;48.426;10.868;2023-02-22T01:59:10;96044.86;;;2.35;100.00
16834;BME280;8533;48.426;10.868;2023-02-22T02:01:39;96038.41;;;2.35;100.00
16834;BME280;8533;48.426;10.868;2023-02-22T02:04:16;96037.87;;;2.36;100.00
16834;BME280;8533;48.426;10.868;2023-02-22T02:06:45;96031.65;;;2.34;100.00
16834;BME280;8533;48.426;10.868;2023-02-22T02:09:32;96026.00;;;2.35;100.00
16834;BME280;8533;48.426;10.868;2023-02-22T02:11:59;96026.48;;;2.34;100.00
16834;BME280;8533;48.426;10.868;2023-02-22T02:14:28;96022.62;;;2.34;100.00
16834;BME280;8533;48.426;10.868;2023-02-22T02:16:57;96021.22;;;2.32;100.00
16834;BME280;8533;48.426;10.868;2023-02-22T02:22:46;96024.89;;;2.33;100.00
16834;BME280;8533;48.426;10.868;2023-02-22T02:25:17;96016.92;;;2.28;100.00
16834;BME280;8533;48.426;10.868;2023-02-22T02:30:36;96016.84;;;2.25;100.00
16834;BME280;8533;48.426;10.868;2023-02-22T02:33:04;96016.66;;;2.27;100.00
16834;BME280;8533;48.426;10.868;2023-02-22T02:38:53;96018.71;;;2.27;100.00
16834;BME280;8533;48.426;10.868;2023-02-22T02:41:26;96021.52;;;2.26;100.00
16834;BME280;8533;48.426;10.868;2023-02-22T02:44:10;96014.34;;;2.28;100.00
16834;BME280;8533;48.426;10.868;2023-02-22T02:46:50;96011.49;;;2.27;100.00
16834;BME280;8533;48.426;10.868;2023-02-22T02:49:22;96012.48;;;2.26;100.00
16834;BME280;8533;48.426;10.868;2023-02-22T02:51:52;96012.48;;;2.26;100.00
16834;BME280;8533;48.426;10.868;2023-02-22T02:54:22;96011.19;;;2.26;100.00
16834;BME280;8533;48.426;10.868;2023-02-22T02:56:50;96010.39;;;2.25;100.00
16834;BME280;8533;48.426;10.868;2023-02-22T02:59:27;96010.28;;;2.23;100.00
16834;BME280;8533;48.426;10.868;2023-02-22T03:04:36;96001.85;;;2.18;100.00
16834;BME280;8533;48.426;10.868;2023-02-22T03:07:08;95998.85;;;2.15;100.00
16834;BME280;8533;48.426;10.868;2023-02-22T03:09:40;95996.16;;;2.12;100.00
16834;BME280;8533;48.426;10.868;2023-02-22T03:14:41;96002.53;;;2.10;100.00
16834;BME280;8533;48.426;10.868;2023-02-22T03:18:00;96000.94;;;2.09;100.00
16834;BME280;8533;48.426;10.868;2023-02-22T03:19:46;96002.41;;;2.07;100.00
16834;BME280;8533;48.426;10.868;2023-02-22T03:24:59;95994.56;;;2.05;100.00
16834;BME280;8533;48.426;10.868;2023-02-22T03:27:24;95992.88;;;2.01;100.00
16834;BME280;8533;48.426;10.868;2023-02-22T03:29:54;95993.87;;;2.00;100.00
16834;BME280;8533;48.426;10.868;2023-02-22T03:32:24;95997.02;;;1.96;100.00
16834;BME280;8533;48.426;10.868;2023-02-22T03:34:58;95993.86;;;1.94;100.00
16834;BME280;8533;48.426;10.868;2023-02-22T03:37:28;95999.20;;;1.92;100.00
16834;BME280;8533;48.426;10.868;2023-02-22T03:39:57;95996.20;;;1.88;100.00
16834;BME280;8533;48.426;10.868;2023-02-22T03:42:31;95997.09;;;1.85;100.00
16834;BME280;8533;48.426;10.868;2023-02-22T03:45:01;95995.70;;;1.82;100.00
16834;BME280;8533;48.426;10.868;2023-02-22T03:47:37;95988.34;;;1.79;100.00
16834;BME280;8533;48.426;10.868;2023-02-22T03:50:11;95988.83;;;1.79;100.00
16834;BME280;8533;48.426;10.868;2023-02-22T03:52:40;95991.31;;;1.76;100.00
16834;BME280;8533;48.426;10.868;2023-02-22T03:55:10;95988.13;;;1.74;100.00
16834;BME280;8533;48.426;10.868;2023-02-22T03:57:40;95986.83;;;1.68;100.00
16834;BME280;8533;48.426;10.868;2023-02-22T04:00:11;95990.37;;;1.60;100.00
16834;BME280;8533;48.426;10.868;2023-02-22T04:02:40;95986.36;;;1.51;100.00
16834;BME280;8533;48.426;10.868;2023-02-22T04:05:08;95983.58;;;1.46;100.00
16834;BME280;8533;48.426;10.868;2023-02-22T04:07:36;95983.45;;;1.43;100.00
16834;BME280;8533;48.426;10.868;2023-02-22T04:10:03;95982.50;;;1.51;100.00
16834;BME280;8533;48.426;10.868;2023-02-22T04:12:33;95980.22;;;1.52;100.00
16834;BME280;8533;48.426;10.868;2023-02-22T04:15:01;95986.08;;;1.57;100.00
16834;BME280;8533;48.426;10.868;2023-02-22T04:17:29;95973.98;;;1.57;100.00
16834;BME280;8533;48.426;10.868;2023-02-22T04:19:57;95973.50;;;1.58;100.00
16834;BME280;8533;48.426;10.868;2023-02-22T04:22:24;95972.33;;;1.60;100.00
16834;BME280;8533;48.426;10.868;2023-02-22T04:24:52;95965.88;;;1.60;100.00
16834;BME280;8533;48.426;10.868;2023-02-22T04:27:20;95961.61;;;1.63;100.00
16834;BME280;8533;48.426;10.868;2023-02-22T04:29:47;95960.55;;;1.68;100.00
16834;BME280;8533;48.426;10.868;2023-02-22T04:32:15;95950.14;;;1.72;100.00
16834;BME280;8533;48.426;10.868;2023-02-22T04:34:42;95945.78;;;1.73;100.00
16834;BME280;8533;48.426;10.868;2023-02-22T04:37:10;95940.64;;;1.79;100.00
16834;BME280;8533;48.426;10.868;2023-02-22T04:39:38;95943.14;;;1.83;100.00
16834;BME280;8533;48.426;10.868;2023-02-22T04:42:05;95938.78;;;1.84;100.00
16834;BME280;8533;48.426;10.868;2023-02-22T04:44:33;95939.28;;;1.83;100.00
16834;BME280;8533;48.426;10.868;2023-02-22T04:47:00;95939.58;;;1.84;100.00
16834;BME280;8533;48.426;10.868;2023-02-22T04:49:27;95939.88;;;1.85;100.00
16834;BME280;8533;48.426;10.868;2023-02-22T04:51:55;95939.66;;;1.87;100.00
16834;BME280;8533;48.426;10.868;2023-02-22T04:54:22;95936.02;;;1.85;100.00
16834;BME280;8533;48.426;10.868;2023-02-22T04:56:50;95939.09;;;1.85;100.00
16834;BME280;8533;48.426;10.868;2023-02-22T04:59:17;95942.46;;;1.85;100.00
16834;BME280;8533;48.426;10.868;2023-02-22T05:01:45;95939.09;;;1.85;100.00
16834;BME280;8533;48.426;10.868;2023-02-22T05:04:12;95946.03;;;1.84;100.00
16834;BME280;8533;48.426;10.868;2023-02-22T05:06:40;95942.66;;;1.84;100.00
16834;BME280;8533;48.426;10.868;2023-02-22T05:09:07;95943.64;;;1.83;100.00
16834;BME280;8533;48.426;10.868;2023-02-22T05:11:34;95942.53;;;1.81;100.00
16834;BME280;8533;48.426;10.868;2023-02-22T05:14:02;95944.51;;;1.79;100.00
16834;BME280;8533;48.426;10.868;2023-02-22T05:16:29;95944.42;;;1.77;100.00
16834;BME280;8533;48.426;10.868;2023-02-22T05:18:57;95946.39;;;1.75;100.00
16834;BME280;8533;48.426;10.868;2023-02-22T05:21:24;95945.30;;;1.73;100.00
16834;BME280;8533;48.426;10.868;2023-02-22T05:23:52;95952.64;;;1.70;100.00
16834;BME280;8533;48.426;10.868;2023-02-22T05:26:19;95953.44;;;1.70;100.00
16834;BME280;8533;48.426;10.868;2023-02-22T05:28:47;95952.14;;;1.70;100.00
16834;BME280;8533;48.426;10.868;2023-02-22T05:31:14;95955.89;;;1.68;100.00
16834;BME280;8533;48.426;10.868;2023-02-22T05:33:42;95952.70;;;1.66;100.00
16834;BME280;8533;48.426;10.868;2023-02-22T05:36:10;95952.70;;;1.66;100.00
16834;BME280;8533;48.426;10.868;2023-02-22T05:38:37;95938.41;;;1.63;100.00
16834;BME280;8533;48.426;10.868;2023-02-22T05:41:10;95940.11;;;1.60;100.00
16834;BME280;8533;48.426;10.868;2023-02-22T05:43:38;95943.25;;;1.56;100.00
16834;BME280;8533;48.426;10.868;2023-02-22T05:46:06;95942.44;;;1.48;100.00
16834;BME280;8533;48.426;10.868;2023-02-22T05:48:34;95940.76;;;1.45;100.00
16834;BME280;8533;48.426;10.868;2023-02-22T05:51:02;95934.50;;;1.43;100.00
16834;BME280;8533;48.426;10.868;2023-02-22T05:53:30;95943.41;;;1.41;100.00
16834;BME280;8533;48.426;10.868;2023-02-22T05:55:57;95937.86;;;1.37;100.00
16834;BME280;8533;48.426;10.868;2023-02-22T05:58:25;95941.23;;;1.38;100.00
16834;BME280;8533;48.426;10.868;2023-02-22T06:00:52;95943.56;;;1.33;100.00
16834;BME280;8533;48.426;10.868;2023-02-22T06:03:20;95945.77;;;1.36;100.00
16834;BME280;8533;48.426;10.868;2023-02-22T06:05:47;95950.92;;;1.36;100.00
16834;BME280;8533;48.426;10.868;2023-02-22T06:08:15;95951.23;;;1.37;100.00
16834;BME280;8533;48.426;10.868;2023-02-22T06:10:43;95951.53;;;1.38;100.00
16834;BME280;8533;48.426;10.868;2023-02-22T06:13:11;95951.81;;;1.39;100.00
16834;BME280;8533;48.426;10.868;2023-02-22T06:15:38;95945.86;;;1.38;100.00
16834;BME280;8533;48.426;10.868;2023-02-22T06:18:05;95944.38;;;1.40;100.00
16834;BME280;8533;48.426;10.868;2023-02-22T06:20:33;95950.75;;;1.44;100.00
16834;BME280;8533;48.426;10.868;2023-02-22T06:23:00;95943.03;;;1.44;100.00
16834;BME280;8533;48.426;10.868;2023-02-22T06:25:30;95947.57;;;1.42;100.00
16834;BME280;8533;48.426;10.868;2023-02-22T06:27:58;95946.59;;;1.43;100.00
16834;BME280;8533;48.426;10.868;2023-02-22T06:30:27;95947.88;;;1.43;100.00
16834;BME280;8533;48.426;10.868;2023-02-22T06:32:56;95949.66;;;1.42;100.00
16834;BME280;8533;48.426;10.868;2023-02-22T06:35:23;95945.30;;;1.43;100.00
16834;BME280;8533;48.426;10.868;2023-02-22T06:37:51;95953.64;;;1.45;100.00
16834;BME280;8533;48.426;10.868;2023-02-22T06:40:18;95947.50;;;1.46;100.00
16834;BME280;8533;48.426;10.868;2023-02-22T06:42:47;95944.62;;;1.45;100.00
16834;BME280;8533;48.426;10.868;2023-02-22T06:45:16;95951.95;;;1.48;100.00
16834;BME280;8533;48.426;10.868;2023-02-22T06:47:44;95960.22;;;1.54;100.00
16834;BME280;8533;48.426;10.868;2023-02-22T06:50:21;95959.33;;;1.58;100.00
16834;BME280;8533;48.426;10.868;2023-02-22T06:52:48;95960.23;;;1.61;100.00
16834;BME280;8533;48.426;10.868;2023-02-22T06:55:21;95967.68;;;1.66;100.00
16834;BME280;8533;48.426;10.868;2023-02-22T06:57:49;95962.64;;;1.69;100.00
16834;BME280;8533;48.426;10.868;2023-02-22T07:00:18;95966.41;;;1.73;100.00
16834;BME280;8533;48.426;10.868;2023-02-22T07:02:46;95969.22;;;1.78;100.00
16834;BME280;8533;48.426;10.868;2023-02-22T07:05:16;95970.90;;;1.81;100.00
16834;BME280;8533;48.426;10.868;2023-02-22T07:07:45;95971.13;;;1.86;100.00
16834;BME280;8533;48.426;10.868;2023-02-22T07:10:27;95970.65;;;1.94;100.00
16834;BME280;8533;48.426;10.868;2023-02-22T07:12:55;95972.25;;;2.01;100.00
16834;BME280;8533;48.426;10.868;2023-02-22T07:15:24;95972.06;;;2.09;100.00
16834;BME280;8533;48.426;10.868;2023-02-22T07:17:53;95974.16;;;2.16;100.00
16834;BME280;8533;48.426;10.868;2023-02-22T07:20:21;95973.17;;;2.24;100.00
16834;BME280;8533;48.426;10.868;2023-02-22T07:22:50;95966.42;;;2.36;100.00
16834;BME280;8533;48.426;10.868;2023-02-22T07:25:18;95974.27;;;2.45;100.00
16834;BME280;8533;48.426;10.868;2023-02-22T07:27:46;95973.28;;;2.53;100.00
16834;BME280;8533;48.426;10.868;2023-02-22T07:30:24;95969.02;;;2.62;100.00
16834;BME280;8533;48.426;10.868;2023-02-22T07:32:48;95965.24;;;2.72;100.00
16834;BME280;8533;48.426;10.868;2023-02-22T07:35:19;95965.94;;;2.83;100.00
16834;BME280;8533;48.426;10.868;2023-02-22T07:37:46;95963.53;;;2.88;100.00
16834;BME280;8533;48.426;10.868;2023-02-22T07:40:15;95967.38;;;3.01;100.00
16834;BME280;8533;48.426;10.868;2023-02-22T07:42:57;95956.73;;;3.13;100.00
16834;BME280;8533;48.426;10.868;2023-02-22T07:45:26;95956.81;;;3.22;100.00
16834;BME280;8533;48.426;10.868;2023-02-22T07:47:53;95955.97;;;3.35;100.00
16834;BME280;8533;48.426;10.868;2023-02-22T07:50:23;95956.44;;;3.48;100.00
16834;BME280;8533;48.426;10.868;2023-02-22T07:52:53;95946.56;;;3.54;100.00
16834;BME280;8533;48.426;10.868;2023-02-22T07:55:23;95942.55;;;3.64;100.00
16834;BME280;8533;48.426;10.868;2023-02-22T07:57:53;95934.62;;;3.75;100.00
16834;BME280;8533;48.426;10.868;2023-02-22T08:00:26;95933.56;;;3.89;100.00
16834;BME280;8533;48.426;10.868;2023-02-22T08:02:54;95933.81;;;3.97;100.00
16834;BME280;8533;48.426;10.868;2023-02-22T08:05:23;95932.64;;;4.08;100.00
16834;BME280;8533;48.426;10.868;2023-02-22T08:07:50;95940.15;;;4.16;100.00
16834;BME280;8533;48.426;10.868;2023-02-22T08:10:20;95936.10;;;4.27;100.00
16834;BME280;8533;48.426;10.868;2023-02-22T08:12:48;95934.05;;;4.36;100.00
16834;BME280;8533;48.426;10.868;2023-02-22T08:15:21;95932.99;;;4.43;100.00
16834;BME280;8533;48.426;10.868;2023-02-22T08:17:47;95939.29;;;4.54;100.00
16834;BME280;8533;48.426;10.868;2023-02-22T08:20:14;95934.99;;;4.66;100.00
16834;BME280;8533;48.426;10.868;2023-02-22T08:22:43;95936.02;;;4.74;100.00
16834;BME280;8533;48.426;10.868;2023-02-22T08:25:12;95936.83;;;4.84;100.00
16834;BME280;8533;48.426;10.868;2023-02-22T08:27:41;95943.03;;;4.92;100.00
16834;BME280;8533;48.426;10.868;2023-02-22T08:30:15;95935.62;;;5.05;100.00
16834;BME280;8533;48.426;10.868;2023-02-22T08:32:47;95938.37;;;5.10;100.00
16834;BME280;8533;48.426;10.868;2023-02-22T08:35:15;95934.55;;;5.21;100.00
16834;BME280;8533;48.426;10.868;2023-02-22T08:37:44;95936.27;;;5.36;100.00
16834;BME280;8533;48.426;10.868;2023-02-22T08:40:14;95934.84;;;5.50;100.00
16834;BME280;8533;48.426;10.868;2023-02-22T08:42:45;95935.89;;;5.60;100.00
16834;BME280;8533;48.426;10.868;2023-02-22T08:45:13;95932.28;;;5.70;100.00
16834;BME280;8533;48.426;10.868;2023-02-22T08:47:41;95925.69;;;5.86;100.00
16834;BME280;8533;48.426;10.868;2023-02-22T08:50:14;95928.65;;;5.99;100.00
16834;BME280;8533;48.426;10.868;2023-02-22T08:52:38;95926.72;;;6.15;100.00
16834;BME280;8533;48.426;10.868;2023-02-22T08:55:06;95933.30;;;6.29;100.00
16834;BME280;8533;48.426;10.868;2023-02-22T08:57:33;95926.62;;;6.33;100.00
16834;BME280;8533;48.426;10.868;2023-02-22T09:00:01;95923.59;;;6.36;100.00
16834;BME280;8533;48.426;10.868;2023-02-22T09:02:29;95923.37;;;6.49;100.00
16834;BME280;8533;48.426;10.868;2023-02-22T09:04:56;95923.51;;;6.66;100.00
16834;BME280;8533;48.426;10.868;2023-02-22T09:07:24;95916.29;;;6.68;100.00
16834;BME280;8533;48.426;10.868;2023-02-22T09:09:51;95914.38;;;6.87;100.00
16834;BME280;8533;48.426;10.868;2023-02-22T09:12:19;95910.23;;;7.00;100.00
16834;BME280;8533;48.426;10.868;2023-02-22T09:14:46;95909.09;;;7.19;100.00
16834;BME280;8533;48.426;10.868;2023-02-22T09:17:13;95904.94;;;7.47;100.00
16834;BME280;8533;48.426;10.868;2023-02-22T09:19:41;95910.71;;;7.63;100.00
16834;BME280;8533;48.426;10.868;2023-02-22T09:22:10;95907.57;;;7.75;100.00
16834;BME280;8533;48.426;10.868;2023-02-22T09:24:38;95908.13;;;7.91;100.00
16834;BME280;8533;48.426;10.868;2023-02-22T09:27:07;95906.75;;;8.03;100.00
16834;BME280;8533;48.426;10.868;2023-02-22T09:29:36;95907.34;;;8.22;100.00
16834;BME280;8533;48.426;10.868;2023-02-22T09:32:05;95907.42;;;8.10;100.00
16834;BME280;8533;48.426;10.868;2023-02-22T09:34:32;95905.97;;;8.17;100.00
16834;BME280;8533;48.426;10.868;2023-02-22T09:37:00;95903.99;;;8.55;98.69
16834;BME280;8533;48.426;10.868;2023-02-22T09:39:29;95900.92;;;8.58;95.87
16834;BME280;8533;48.426;10.868;2023-02-22T09:42:31;95897.97;;;9.07;95.09
16834;BME280;8533;48.426;10.868;2023-02-22T09:45:09;95890.11;;;9.26;90.68
16834;BME280;8533;48.426;10.868;2023-02-22T09:47:46;95893.97;;;9.43;87.83
16834;BME280;8533;48.426;10.868;2023-02-22T09:50:16;95893.91;;;9.60;88.81
16834;BME280;8533;48.426;10.868;2023-02-22T09:52:53;95892.98;;;10.19;83.55
16834;BME280;8533;48.426;10.868;2023-02-22T09:55:34;95890.67;;;10.25;80.57
16834;BME280;8533;48.426;10.868;2023-02-22T09:58:06;95883.31;;;10.91;77.10
16834;BME280;8533;48.426;10.868;2023-02-22T10:00:32;95880.95;;;10.95;74.29
16834;BME280;8533;48.426;10.868;2023-02-22T10:03:26;95873.03;;;11.27;71.66
16834;BME280;8533;48.426;10.868;2023-02-22T10:06:05;95874.23;;;11.66;70.62
16834;BME280;8533;48.426;10.868;2023-02-22T10:08:33;95868.19;;;11.68;66.59
16834;BME280;8533;48.426;10.868;2023-02-22T10:11:09;95864.52;;;11.64;64.89
16834;BME280;8533;48.426;10.868;2023-02-22T10:20:09;95865.17;;;12.27;62.22
16834;BME280;8533;48.426;10.868;2023-02-22T10:21:55;95861.77;;;12.65;57.22
16834;BME280;8533;48.426;10.868;2023-02-22T10:27:05;95857.82;;;12.42;56.52
16834;BME280;8533;48.426;10.868;2023-02-22T10:29:42;95857.56;;;12.20;57.76
16834;BME280;8533;48.426;10.868;2023-02-22T10:32:20;95856.25;;;12.18;57.03
16834;BME280;8533;48.426;10.868;2023-02-22T10:34:49;95849.14;;;11.93;57.80
16834;BME280;8533;48.426;10.868;2023-02-22T10:37:29;95851.98;;;11.74;58.78
16834;BME280;8533;48.426;10.868;2023-02-22T10:40:17;95851.44;;;11.72;58.38
16834;BME280;8533;48.426;10.868;2023-02-22T10:42:43;95845.98;;;11.81;57.84
16834;BME280;8533;48.426;10.868;2023-02-22T10:45:20;95842.06;;;11.81;57.55
16834;BME280;8533;48.426;10.868;2023-02-22T10:47:47;95844.37;;;11.72;58.71
16834;BME280;8533;48.426;10.868;2023-02-22T10:50:15;95838.08;;;11.73;59.85
16834;BME280;8533;48.426;10.868;2023-02-22T10:52:43;95844.70;;;11.91;58.61
16834;BME280;8533;48.426;10.868;2023-02-22T10:55:13;95843.09;;;11.85;58.26
16834;BME280;8533;48.426;10.868;2023-02-22T10:57:45;95844.43;;;11.95;57.16
16834;BME280;8533;48.426;10.868;2023-02-22T11:00:21;95845.91;;;11.58;59.34
16834;BME280;8533;48.426;10.868;2023-02-22T11:02:52;95843.92;;;11.98;57.68
16834;BME280;8533;48.426;10.868;2023-02-22T11:05:32;95835.81;;;12.15;56.80
16834;BME280;8533;48.426;10.868;2023-02-22T11:08:18;95841.03;;;12.25;54.61
16834;BME280;8533;48.426;10.868;2023-02-22T11:10:44;95828.19;;;12.56;54.22
16834;BME280;8533;48.426;10.868;2023-02-22T11:13:28;95819.79;;;12.54;53.29
16834;BME280;8533;48.426;10.868;2023-02-22T11:16:01;95825.79;;;12.68;54.12
16834;BME280;8533;48.426;10.868;2023-02-22T11:18:36;95817.44;;;12.45;55.27
16834;BME280;8533;48.426;10.868;2023-02-22T11:21:03;95816.41;;;12.06;54.63
16834;BME280;8533;48.426;10.868;2023-02-22T11:23:30;95811.17;;;12.16;53.53
16834;BME280;8533;48.426;10.868;2023-02-22T11:26:07;95810.09;;;12.27;54.61
16834;BME280;8533;48.426;10.868;2023-02-22T11:28:34;95804.84;;;12.42;53.25
16834;BME280;8533;48.426;10.868;2023-02-22T11:31:13;95800.03;;;12.87;53.17
16834;BME280;8533;48.426;10.868;2023-02-22T11:33:50;95792.30;;;13.24;50.85
16834;BME280;8533;48.426;10.868;2023-02-22T11:36:30;95785.91;;;13.45;51.48
16834;BME280;8533;48.426;10.868;2023-02-22T11:38:58;95787.88;;;13.66;49.72
16834;BME280;8533;48.426;10.868;2023-02-22T11:41:31;95780.09;;;13.48;51.39
16834;BME280;8533;48.426;10.868;2023-02-22T11:44:21;95775.89;;;13.47;50.39
16834;BME280;8533;48.426;10.868;2023-02-22T11:46:50;95772.16;;;12.99;51.15
16834;BME280;8533;48.426;10.868;2023-02-22T11:49:19;95769.76;;;13.08;51.63
16834;BME280;8533;48.426;10.868;2023-02-22T11:54:31;95763.41;;;13.24;50.52
16834;BME280;8533;48.426;10.868;2023-02-22T12:02:49;95764.38;;;14.13;49.25
16834;BME280;8533;48.426;10.868;2023-02-22T12:05:21;95757.91;;;14.61;48.54
16834;BME280;8533;48.426;10.868;2023-02-22T12:08:09;95756.94;;;14.78;45.58
16834;BME280;8533;48.426;10.868;2023-02-22T12:10:46;95760.70;;;14.72;47.40
16834;BME280;8533;48.426;10.868;2023-02-22T12:18:38;95748.70;;;15.27;45.75
16834;BME280;8533;48.426;10.868;2023-02-22T12:21:14;95741.80;;;14.92;45.47
16834;BME280;8533;48.426;10.868;2023-02-22T12:23:55;95738.78;;;14.77;46.61
16834;BME280;8533;48.426;10.868;2023-02-22T12:26:30;95739.14;;;15.55;43.53
16834;BME280;8533;48.426;10.868;2023-02-22T12:31:59;95733.55;;;15.17;44.67
16834;BME280;8533;48.426;10.868;2023-02-22T12:34:37;95736.69;;;15.78;42.41
16834;BME280;8533;48.426;10.868;2023-02-22T12:37:15;95729.00;;;15.41;44.12
16834;BME280;8533;48.426;10.868;2023-02-22T12:39:44;95732.21;;;15.59;43.67
16834;BME280;8533;48.426;10.868;2023-02-22T12:42:21;95727.44;;;15.61;42.65
16834;BME280;8533;48.426;10.868;2023-02-22T12:44:46;95731.92;;;15.80;42.19
16834;BME280;8533;48.426;10.868;2023-02-22T12:47:18;95728.91;;;16.02;41.50
16834;BME280;8533;48.426;10.868;2023-02-22T12:49:56;95730.11;;;15.94;41.38
16834;BME280;8533;48.426;10.868;2023-02-22T12:57:37;95723.47;;;16.13;41.36
16834;BME280;8533;48.426;10.868;2023-02-22T13:00:09;95721.30;;;15.66;42.67
16834;BME280;8533;48.426;10.868;2023-02-22T13:02:42;95714.15;;;15.85;41.20
16834;BME280;8533;48.426;10.868;2023-02-22T13:05:15;95717.70;;;15.78;41.85
16834;BME280;8533;48.426;10.868;2023-02-22T13:10:46;95706.52;;;15.68;42.12
16834;BME280;8533;48.426;10.868;2023-02-22T13:13:32;95709.13;;;15.86;42.59
16834;BME280;8533;48.426;10.868;2023-02-22T13:27:16;95684.03;;;14.98;42.13
16834;BME280;8533;48.426;10.868;2023-02-22T13:29:52;95687.31;;;15.27;41.67
16834;BME280;8533;48.426;10.868;2023-02-22T13:32:25;95692.53;;;15.32;40.90
16834;BME280;8533;48.426;10.868;2023-02-22T13:43:43;95684.97;;;15.63;41.16
16834;BME280;8533;48.426;10.868;2023-02-22T13:51:53;95673.77;;;15.71;40.26
16834;BME280;8533;48.426;10.868;2023-02-22T13:54:42;95678.77;;;15.35;40.57
16834;BME280;8533;48.426;10.868;2023-02-22T13:57:39;95674.27;;;15.36;40.13
16834;BME280;8533;48.426;10.868;2023-02-22T14:00:17;95668.70;;;15.40;43.80
16834;BME280;8533;48.426;10.868;2023-02-22T14:03:03;95670.60;;;15.34;42.46
16834;BME280;8533;48.426;10.868;2023-02-22T14:11:01;95670.84;;;15.89;43.69
16834;BME280;8533;48.426;10.868;2023-02-22T14:13:27;95663.95;;;15.74;44.79
16834;BME280;8533;48.426;10.868;2023-02-22T14:21:10;95670.55;;;15.39;47.01
16834;BME280;8533;48.426;10.868;2023-02-22T14:23:42;95670.13;;;15.32;47.36
16834;BME280;8533;48.426;10.868;2023-02-22T14:34:15;95663.41;;;15.02;49.00
16834;BME280;8533;48.426;10.868;2023-02-22T14:37:05;95667.22;;;14.94;49.39
16834;BME280;8533;48.426;10.868;2023-02-22T14:39:38;95664.66;;;14.88;49.36
16834;BME280;8533;48.426;10.868;2023-02-22T14:45:04;95666.52;;;14.67;50.08
16834;BME280;8533;48.426;10.868;2023-02-22T14:50:26;95661.34;;;14.33;50.80
16834;BME280;8533;48.426;10.868;2023-02-22T14:53:03;95660.84;;;14.31;50.40
16834;BME280;8533;48.426;10.868;2023-02-22T14:55:28;95661.70;;;14.24;50.50
16834;BME280;8533;48.426;10.868;2023-02-22T14:58:06;95666.28;;;14.13;49.98
16834;BME280;8533;48.426;10.868;2023-02-22T15:00:45;95660.50;;;14.11;50.45